Byron, Michigan
Current Conditions -  °F | °C
As of 4:14 AM on Saturday 22 Nov 2014 (Local Time) from KOZW Reporting Station
Overcast Overcast  
Wind Chill: 18°   Ceiling: 2600
Heat Index: 26°   Visibility: 10mi
Dew Point: 15°   Wind: 8mph
Humidity: 61%   Direction: 160°SSE
Pressure: 30.14"   Gusts: NA
Location:  42.82°N, 83.94°W
Report Text: KOZW 220914Z AUTO 16007KT 10SM OVC026 M03/M10 A3014 RMK AO2 T10311096
Loading
Personal Weather Stations






























Interactive Weather Map New forecast layout! Learn more

10-Day Weather Forecast

Advertisements
Track Severe Weather on mobile